Pagrindinis puslapis
METAR-TAF:

METAR-TAF

Oro uostai :

Brønnøysund, Norvegija

platuma: 65-28N, ilguma: 012-13E, Aukštis: 0 m

Dabartinis oras

Ataskaita buvo paskelbta 38 minutes, ne 05:50 UTC
Vėjas 5 kt iš Vakarų, svyruoja nuo Pietų/Pietvakarių ir Vakarų/Šiaurės Vakarų
Temperatūra 2°C
Drėgmė 64%
Slėgis 1020 hPa
Matomumas 10 km arba daugiau

METAR: ENBN 100550Z AUTO 26005KT 210V300 9999NDV FEW037/// SCT092/// 02/M04 Q1020

Laikas: 08:28 (06:28 UTC)

Prognozė

Ataskaita buvo paskelbta 1 valandą ir 28 minutes, ne 05:00 UTC
Prognozė galioja nuo 10 metu 06 UTC su 10 metu 15 UTC
Vėjas 8 kt iš Vakarų/Šiaurės Vakarų
Matomumas 10 km arba daugiau
Mažai debesys ne aukštis 1500 ft, Liūtiniai kamuoliniai debesys.
Išsisklaidę debesys ne aukštis 3000 ft
Laikinai
nuo 10 metu 06 UTC su 10 metu 15 UTC
Vėjas 18 kt iš Šiaurės Vakarų
Matomumas: 2000 m
ne aukštis 800 ft
sniegas, ledo ar sniego kruopos

TAF: ENBN 100500Z 1006/1015 30008KT 9999 FEW015CB SCT030 TEMPO 1006/1015 32018KT 2000 SHSNGS VV008

Orai ataskaitas ir orų prognozės (METAR, TAF).

turimą stotys yra geltonos ir raudonos taškus žemėlapyje.

Perkelti pele per norėdami pamatyti stoties vardą.

Tada spustelėkite, norėdami matyti oro stebėjimo ir prognozės.

Norėdami pakeisti žemėlapį: spustelėkite ant žalios mygtukų su juodo kryžiaus žemyn,; žalią mygtuką su brūkšneliu, jei norite nutolinti; arba žalių rodyklių gretimoms žemėlapius.


METAR-TAF: